sensor_id;sensor_type;location;lat;lon;timestamp;P1;durP1;ratioP1;P2;durP2;ratioP2
13406;SDS011;6774;48.208;10.766;2022-09-03T00:00:07;2.10;;;1.77;;
13406;SDS011;6774;48.208;10.766;2022-09-03T00:02:39;1.43;;;1.33;;
13406;SDS011;6774;48.208;10.766;2022-09-03T00:05:15;1.27;;;1.27;;
13406;SDS011;6774;48.208;10.766;2022-09-03T00:07:47;0.97;;;0.97;;
13406;SDS011;6774;48.208;10.766;2022-09-03T00:10:27;1.20;;;1.20;;
13406;SDS011;6774;48.208;10.766;2022-09-03T00:12:59;1.70;;;1.67;;
13406;SDS011;6774;48.208;10.766;2022-09-03T00:15:30;1.40;;;1.30;;
13406;SDS011;6774;48.208;10.766;2022-09-03T00:18:01;1.67;;;1.10;;
13406;SDS011;6774;48.208;10.766;2022-09-03T00:20:35;0.87;;;0.87;;
13406;SDS011;6774;48.208;10.766;2022-09-03T00:23:08;1.90;;;1.80;;
13406;SDS011;6774;48.208;10.766;2022-09-03T00:25:42;1.00;;;1.00;;
13406;SDS011;6774;48.208;10.766;2022-09-03T00:28:15;1.03;;;1.03;;
13406;SDS011;6774;48.208;10.766;2022-09-03T00:30:50;2.13;;;2.03;;
13406;SDS011;6774;48.208;10.766;2022-09-03T00:33:26;0.90;;;0.90;;
13406;SDS011;6774;48.208;10.766;2022-09-03T00:36:04;0.60;;;0.60;;
13406;SDS011;6774;48.208;10.766;2022-09-03T00:38:39;0.87;;;0.87;;
13406;SDS011;6774;48.208;10.766;2022-09-03T00:41:07;1.17;;;1.17;;
13406;SDS011;6774;48.208;10.766;2022-09-03T00:43:54;2.37;;;1.67;;
13406;SDS011;6774;48.208;10.766;2022-09-03T00:46:32;0.83;;;0.83;;
13406;SDS011;6774;48.208;10.766;2022-09-03T00:49:20;1.80;;;1.70;;
13406;SDS011;6774;48.208;10.766;2022-09-03T00:52:01;1.60;;;1.40;;
13406;SDS011;6774;48.208;10.766;2022-09-03T00:54:39;1.73;;;1.13;;
13406;SDS011;6774;48.208;10.766;2022-09-03T00:57:18;1.53;;;1.43;;
13406;SDS011;6774;48.208;10.766;2022-09-03T00:59:56;2.97;;;1.17;;
13406;SDS011;6774;48.208;10.766;2022-09-03T01:02:34;1.20;;;1.20;;
13406;SDS011;6774;48.208;10.766;2022-09-03T01:05:15;1.13;;;1.13;;
13406;SDS011;6774;48.208;10.766;2022-09-03T01:08:01;1.10;;;1.10;;
13406;SDS011;6774;48.208;10.766;2022-09-03T01:10:43;1.43;;;1.23;;
13406;SDS011;6774;48.208;10.766;2022-09-03T01:13:20;0.87;;;0.87;;
13406;SDS011;6774;48.208;10.766;2022-09-03T01:15:55;2.20;;;2.00;;
13406;SDS011;6774;48.208;10.766;2022-09-03T01:18:37;1.37;;;1.07;;
13406;SDS011;6774;48.208;10.766;2022-09-03T01:21:20;1.83;;;0.87;;
13406;SDS011;6774;48.208;10.766;2022-09-03T01:24:15;1.23;;;1.13;;
13406;SDS011;6774;48.208;10.766;2022-09-03T01:27:14;1.63;;;1.07;;
13406;SDS011;6774;48.208;10.766;2022-09-03T01:29:55;1.40;;;0.80;;
13406;SDS011;6774;48.208;10.766;2022-09-03T01:32:30;1.57;;;1.47;;
13406;SDS011;6774;48.208;10.766;2022-09-03T01:35:09;1.30;;;1.30;;
13406;SDS011;6774;48.208;10.766;2022-09-03T01:37:49;0.90;;;0.90;;
13406;SDS011;6774;48.208;10.766;2022-09-03T01:40:31;1.30;;;1.20;;
13406;SDS011;6774;48.208;10.766;2022-09-03T01:43:13;1.50;;;1.40;;
13406;SDS011;6774;48.208;10.766;2022-09-03T01:46:04;1.33;;;1.33;;
13406;SDS011;6774;48.208;10.766;2022-09-03T01:48:42;1.80;;;1.00;;
13406;SDS011;6774;48.208;10.766;2022-09-03T01:51:22;1.20;;;1.10;;
13406;SDS011;6774;48.208;10.766;2022-09-03T01:54:01;1.13;;;0.90;;
13406;SDS011;6774;48.208;10.766;2022-09-03T01:57:00;3.37;;;1.10;;
13406;SDS011;6774;48.208;10.766;2022-09-03T02:00:03;2.53;;;1.30;;
13406;SDS011;6774;48.208;10.766;2022-09-03T02:02:40;1.47;;;1.37;;
13406;SDS011;6774;48.208;10.766;2022-09-03T02:05:14;0.93;;;0.93;;
13406;SDS011;6774;48.208;10.766;2022-09-03T02:07:45;1.03;;;1.00;;
13406;SDS011;6774;48.208;10.766;2022-09-03T02:10:15;2.07;;;1.53;;
13406;SDS011;6774;48.208;10.766;2022-09-03T02:12:47;1.70;;;1.60;;
13406;SDS011;6774;48.208;10.766;2022-09-03T02:15:19;1.23;;;1.23;;
13406;SDS011;6774;48.208;10.766;2022-09-03T02:17:51;1.40;;;1.30;;
13406;SDS011;6774;48.208;10.766;2022-09-03T02:20:23;1.27;;;1.17;;
13406;SDS011;6774;48.208;10.766;2022-09-03T02:22:53;1.37;;;1.33;;
13406;SDS011;6774;48.208;10.766;2022-09-03T02:25:25;1.70;;;1.60;;
13406;SDS011;6774;48.208;10.766;2022-09-03T02:27:57;1.60;;;1.50;;
13406;SDS011;6774;48.208;10.766;2022-09-03T02:30:26;2.90;;;2.10;;
13406;SDS011;6774;48.208;10.766;2022-09-03T02:32:55;1.60;;;1.50;;
13406;SDS011;6774;48.208;10.766;2022-09-03T02:35:23;1.30;;;1.20;;
13406;SDS011;6774;48.208;10.766;2022-09-03T02:37:51;1.47;;;1.37;;
13406;SDS011;6774;48.208;10.766;2022-09-03T02:40:19;1.50;;;1.30;;
13406;SDS011;6774;48.208;10.766;2022-09-03T02:42:47;1.87;;;1.43;;
13406;SDS011;6774;48.208;10.766;2022-09-03T02:45:19;1.70;;;1.60;;
13406;SDS011;6774;48.208;10.766;2022-09-03T02:47:55;1.30;;;1.20;;
13406;SDS011;6774;48.208;10.766;2022-09-03T02:50:25;1.10;;;1.00;;
13406;SDS011;6774;48.208;10.766;2022-09-03T02:52:54;0.80;;;0.80;;
13406;SDS011;6774;48.208;10.766;2022-09-03T02:55:22;1.60;;;1.50;;
13406;SDS011;6774;48.208;10.766;2022-09-03T02:57:50;1.00;;;1.00;;
13406;SDS011;6774;48.208;10.766;2022-09-03T03:00:17;0.97;;;0.97;;
13406;SDS011;6774;48.208;10.766;2022-09-03T03:02:46;1.60;;;1.50;;
13406;SDS011;6774;48.208;10.766;2022-09-03T03:05:17;1.60;;;1.50;;
13406;SDS011;6774;48.208;10.766;2022-09-03T03:07:52;2.10;;;1.33;;
13406;SDS011;6774;48.208;10.766;2022-09-03T03:10:24;1.57;;;1.30;;
13406;SDS011;6774;48.208;10.766;2022-09-03T03:12:52;1.53;;;1.13;;
13406;SDS011;6774;48.208;10.766;2022-09-03T03:15:20;2.50;;;2.30;;
13406;SDS011;6774;48.208;10.766;2022-09-03T03:17:48;1.23;;;1.23;;
13406;SDS011;6774;48.208;10.766;2022-09-03T03:20:17;0.83;;;0.83;;
13406;SDS011;6774;48.208;10.766;2022-09-03T03:22:45;2.13;;;2.03;;
13406;SDS011;6774;48.208;10.766;2022-09-03T03:25:14;1.37;;;1.27;;
13406;SDS011;6774;48.208;10.766;2022-09-03T03:27:42;1.73;;;1.63;;
13406;SDS011;6774;48.208;10.766;2022-09-03T03:30:10;2.40;;;1.80;;
13406;SDS011;6774;48.208;10.766;2022-09-03T03:32:39;2.37;;;1.87;;
13406;SDS011;6774;48.208;10.766;2022-09-03T03:35:07;1.93;;;1.83;;
13406;SDS011;6774;48.208;10.766;2022-09-03T03:37:38;1.10;;;1.10;;
13406;SDS011;6774;48.208;10.766;2022-09-03T03:40:07;1.20;;;1.20;;
13406;SDS011;6774;48.208;10.766;2022-09-03T03:42:35;1.77;;;1.43;;
13406;SDS011;6774;48.208;10.766;2022-09-03T03:45:04;1.60;;;1.57;;
13406;SDS011;6774;48.208;10.766;2022-09-03T03:47:32;2.13;;;2.03;;
13406;SDS011;6774;48.208;10.766;2022-09-03T03:50:00;1.70;;;1.53;;
13406;SDS011;6774;48.208;10.766;2022-09-03T03:52:28;1.63;;;1.53;;
13406;SDS011;6774;48.208;10.766;2022-09-03T03:54:57;2.40;;;1.50;;
13406;SDS011;6774;48.208;10.766;2022-09-03T03:57:28;1.37;;;1.37;;
13406;SDS011;6774;48.208;10.766;2022-09-03T03:59:57;1.97;;;1.87;;
13406;SDS011;6774;48.208;10.766;2022-09-03T04:02:24;1.30;;;1.30;;
13406;SDS011;6774;48.208;10.766;2022-09-03T04:04:52;1.40;;;1.40;;
13406;SDS011;6774;48.208;10.766;2022-09-03T04:07:20;4.93;;;3.10;;
13406;SDS011;6774;48.208;10.766;2022-09-03T04:09:48;2.60;;;2.40;;
13406;SDS011;6774;48.208;10.766;2022-09-03T04:12:17;1.87;;;1.77;;
13406;SDS011;6774;48.208;10.766;2022-09-03T04:14:45;2.33;;;2.23;;
13406;SDS011;6774;48.208;10.766;2022-09-03T04:17:13;1.60;;;1.50;;
13406;SDS011;6774;48.208;10.766;2022-09-03T04:19:41;1.00;;;1.00;;
13406;SDS011;6774;48.208;10.766;2022-09-03T04:22:09;1.80;;;1.57;;
13406;SDS011;6774;48.208;10.766;2022-09-03T04:24:37;1.40;;;1.30;;
13406;SDS011;6774;48.208;10.766;2022-09-03T04:27:05;2.50;;;1.93;;
13406;SDS011;6774;48.208;10.766;2022-09-03T04:29:34;1.70;;;1.60;;
13406;SDS011;6774;48.208;10.766;2022-09-03T04:32:03;1.57;;;1.47;;
13406;SDS011;6774;48.208;10.766;2022-09-03T04:34:48;2.47;;;2.37;;
13406;SDS011;6774;48.208;10.766;2022-09-03T04:37:16;1.40;;;1.30;;
13406;SDS011;6774;48.208;10.766;2022-09-03T04:39:45;1.43;;;1.20;;
13406;SDS011;6774;48.208;10.766;2022-09-03T04:42:14;2.40;;;2.27;;
13406;SDS011;6774;48.208;10.766;2022-09-03T04:44:43;1.60;;;1.50;;
13406;SDS011;6774;48.208;10.766;2022-09-03T04:47:11;1.57;;;1.00;;
13406;SDS011;6774;48.208;10.766;2022-09-03T04:49:40;2.93;;;1.63;;
13406;SDS011;6774;48.208;10.766;2022-09-03T04:52:08;1.17;;;1.17;;
13406;SDS011;6774;48.208;10.766;2022-09-03T04:54:36;1.37;;;1.37;;
13406;SDS011;6774;48.208;10.766;2022-09-03T04:57:03;1.63;;;1.53;;
13406;SDS011;6774;48.208;10.766;2022-09-03T04:59:31;2.23;;;2.13;;
13406;SDS011;6774;48.208;10.766;2022-09-03T05:02:00;1.30;;;1.30;;
13406;SDS011;6774;48.208;10.766;2022-09-03T05:04:28;1.30;;;1.20;;
13406;SDS011;6774;48.208;10.766;2022-09-03T05:06:56;2.00;;;1.90;;
13406;SDS011;6774;48.208;10.766;2022-09-03T05:09:24;1.97;;;1.87;;
13406;SDS011;6774;48.208;10.766;2022-09-03T05:11:52;3.93;;;2.23;;
13406;SDS011;6774;48.208;10.766;2022-09-03T05:14:20;1.83;;;1.73;;
13406;SDS011;6774;48.208;10.766;2022-09-03T05:16:48;1.83;;;1.73;;
13406;SDS011;6774;48.208;10.766;2022-09-03T05:19:20;4.47;;;1.87;;
13406;SDS011;6774;48.208;10.766;2022-09-03T05:21:47;3.63;;;1.80;;
13406;SDS011;6774;48.208;10.766;2022-09-03T05:24:15;3.43;;;2.57;;
13406;SDS011;6774;48.208;10.766;2022-09-03T05:26:44;2.70;;;2.60;;
13406;SDS011;6774;48.208;10.766;2022-09-03T05:29:12;1.80;;;1.70;;
13406;SDS011;6774;48.208;10.766;2022-09-03T05:31:41;4.17;;;2.57;;
13406;SDS011;6774;48.208;10.766;2022-09-03T05:34:09;3.20;;;3.00;;
13406;SDS011;6774;48.208;10.766;2022-09-03T05:36:43;1.23;;;1.23;;
13406;SDS011;6774;48.208;10.766;2022-09-03T05:39:15;2.60;;;2.20;;
13406;SDS011;6774;48.208;10.766;2022-09-03T05:41:43;2.50;;;2.40;;
13406;SDS011;6774;48.208;10.766;2022-09-03T05:44:10;2.20;;;2.00;;
13406;SDS011;6774;48.208;10.766;2022-09-03T05:46:39;4.03;;;1.90;;
13406;SDS011;6774;48.208;10.766;2022-09-03T05:49:06;3.53;;;1.77;;
13406;SDS011;6774;48.208;10.766;2022-09-03T05:51:34;1.80;;;1.70;;
13406;SDS011;6774;48.208;10.766;2022-09-03T05:54:06;1.20;;;1.10;;
13406;SDS011;6774;48.208;10.766;2022-09-03T05:56:35;1.37;;;1.37;;
13406;SDS011;6774;48.208;10.766;2022-09-03T05:59:06;2.10;;;2.00;;
13406;SDS011;6774;48.208;10.766;2022-09-03T06:01:35;1.97;;;1.87;;
13406;SDS011;6774;48.208;10.766;2022-09-03T06:04:04;1.77;;;1.67;;
13406;SDS011;6774;48.208;10.766;2022-09-03T06:06:34;1.40;;;1.40;;
13406;SDS011;6774;48.208;10.766;2022-09-03T06:09:03;2.63;;;1.40;;
13406;SDS011;6774;48.208;10.766;2022-09-03T06:11:34;1.73;;;1.63;;
13406;SDS011;6774;48.208;10.766;2022-09-03T06:14:04;1.40;;;1.30;;
13406;SDS011;6774;48.208;10.766;2022-09-03T06:16:34;1.50;;;1.40;;
13406;SDS011;6774;48.208;10.766;2022-09-03T06:19:04;2.13;;;2.03;;
13406;SDS011;6774;48.208;10.766;2022-09-03T06:21:35;1.10;;;1.10;;
13406;SDS011;6774;48.208;10.766;2022-09-03T06:24:07;2.03;;;1.93;;
13406;SDS011;6774;48.208;10.766;2022-09-03T06:26:37;2.30;;;2.20;;
13406;SDS011;6774;48.208;10.766;2022-09-03T06:29:08;2.07;;;2.00;;
13406;SDS011;6774;48.208;10.766;2022-09-03T06:31:36;2.13;;;2.03;;
13406;SDS011;6774;48.208;10.766;2022-09-03T06:34:05;2.57;;;2.47;;
13406;SDS011;6774;48.208;10.766;2022-09-03T06:36:33;2.27;;;2.17;;
13406;SDS011;6774;48.208;10.766;2022-09-03T06:39:02;2.60;;;2.40;;
13406;SDS011;6774;48.208;10.766;2022-09-03T06:41:31;4.10;;;3.80;;
13406;SDS011;6774;48.208;10.766;2022-09-03T06:44:02;2.20;;;2.10;;
13406;SDS011;6774;48.208;10.766;2022-09-03T06:46:32;2.57;;;2.10;;
13406;SDS011;6774;48.208;10.766;2022-09-03T06:49:01;3.03;;;2.83;;
13406;SDS011;6774;48.208;10.766;2022-09-03T06:51:29;4.83;;;3.37;;
13406;SDS011;6774;48.208;10.766;2022-09-03T06:53:59;3.10;;;2.47;;
13406;SDS011;6774;48.208;10.766;2022-09-03T06:56:29;2.83;;;2.63;;
13406;SDS011;6774;48.208;10.766;2022-09-03T06:59:05;2.77;;;2.60;;
13406;SDS011;6774;48.208;10.766;2022-09-03T07:01:34;2.47;;;2.37;;
13406;SDS011;6774;48.208;10.766;2022-09-03T07:04:03;3.37;;;2.40;;
13406;SDS011;6774;48.208;10.766;2022-09-03T07:06:34;2.13;;;2.00;;
13406;SDS011;6774;48.208;10.766;2022-09-03T07:09:04;1.83;;;1.73;;
13406;SDS011;6774;48.208;10.766;2022-09-03T07:11:34;1.40;;;1.30;;
13406;SDS011;6774;48.208;10.766;2022-09-03T07:14:03;2.40;;;2.20;;
13406;SDS011;6774;48.208;10.766;2022-09-03T07:16:32;3.03;;;2.73;;
13406;SDS011;6774;48.208;10.766;2022-09-03T07:19:02;1.77;;;1.67;;
13406;SDS011;6774;48.208;10.766;2022-09-03T07:21:31;2.77;;;2.67;;
13406;SDS011;6774;48.208;10.766;2022-09-03T07:24:02;1.67;;;1.67;;
13406;SDS011;6774;48.208;10.766;2022-09-03T07:26:32;2.73;;;2.53;;
13406;SDS011;6774;48.208;10.766;2022-09-03T07:29:02;9.00;;;4.33;;
13406;SDS011;6774;48.208;10.766;2022-09-03T07:31:31;1.87;;;1.77;;
13406;SDS011;6774;48.208;10.766;2022-09-03T07:34:02;3.03;;;2.93;;
13406;SDS011;6774;48.208;10.766;2022-09-03T07:36:36;2.50;;;2.30;;
13406;SDS011;6774;48.208;10.766;2022-09-03T07:39:07;2.33;;;2.23;;
13406;SDS011;6774;48.208;10.766;2022-09-03T07:41:38;2.17;;;2.00;;
13406;SDS011;6774;48.208;10.766;2022-09-03T07:44:08;3.57;;;3.37;;
13406;SDS011;6774;48.208;10.766;2022-09-03T07:46:36;3.33;;;3.00;;
13406;SDS011;6774;48.208;10.766;2022-09-03T07:49:06;3.10;;;2.90;;
13406;SDS011;6774;48.208;10.766;2022-09-03T07:51:35;2.70;;;2.60;;
13406;SDS011;6774;48.208;10.766;2022-09-03T07:54:05;2.60;;;2.50;;
13406;SDS011;6774;48.208;10.766;2022-09-03T07:56:38;3.40;;;2.83;;
13406;SDS011;6774;48.208;10.766;2022-09-03T07:59:07;2.97;;;2.83;;
13406;SDS011;6774;48.208;10.766;2022-09-03T08:01:35;3.13;;;2.93;;
13406;SDS011;6774;48.208;10.766;2022-09-03T08:04:07;2.70;;;2.40;;
13406;SDS011;6774;48.208;10.766;2022-09-03T08:06:37;2.00;;;1.90;;
13406;SDS011;6774;48.208;10.766;2022-09-03T08:09:06;3.03;;;2.87;;
13406;SDS011;6774;48.208;10.766;2022-09-03T08:11:36;3.53;;;3.37;;
13406;SDS011;6774;48.208;10.766;2022-09-03T08:14:07;3.30;;;3.10;;
13406;SDS011;6774;48.208;10.766;2022-09-03T08:16:36;2.07;;;1.97;;
13406;SDS011;6774;48.208;10.766;2022-09-03T08:19:07;2.70;;;2.60;;
13406;SDS011;6774;48.208;10.766;2022-09-03T08:21:36;2.60;;;2.50;;
13406;SDS011;6774;48.208;10.766;2022-09-03T08:24:07;3.00;;;2.70;;
13406;SDS011;6774;48.208;10.766;2022-09-03T08:26:36;3.17;;;2.97;;
13406;SDS011;6774;48.208;10.766;2022-09-03T08:29:07;3.20;;;3.00;;
13406;SDS011;6774;48.208;10.766;2022-09-03T08:31:35;3.00;;;2.80;;
13406;SDS011;6774;48.208;10.766;2022-09-03T08:34:05;2.57;;;2.43;;
13406;SDS011;6774;48.208;10.766;2022-09-03T08:36:34;3.03;;;2.83;;
13406;SDS011;6774;48.208;10.766;2022-09-03T08:39:04;2.00;;;1.90;;
13406;SDS011;6774;48.208;10.766;2022-09-03T08:41:45;2.53;;;2.33;;
13406;SDS011;6774;48.208;10.766;2022-09-03T08:44:24;3.20;;;2.40;;
13406;SDS011;6774;48.208;10.766;2022-09-03T08:46:58;2.70;;;2.50;;
13406;SDS011;6774;48.208;10.766;2022-09-03T08:49:30;2.73;;;2.63;;
13406;SDS011;6774;48.208;10.766;2022-09-03T08:52:05;1.83;;;1.73;;
13406;SDS011;6774;48.208;10.766;2022-09-03T08:54:42;1.63;;;1.53;;
13406;SDS011;6774;48.208;10.766;2022-09-03T08:57:11;1.57;;;1.47;;
13406;SDS011;6774;48.208;10.766;2022-09-03T08:59:40;1.30;;;1.30;;
13406;SDS011;6774;48.208;10.766;2022-09-03T09:02:12;1.07;;;1.00;;
13406;SDS011;6774;48.208;10.766;2022-09-03T09:04:52;0.83;;;0.83;;
13406;SDS011;6774;48.208;10.766;2022-09-03T09:07:26;0.80;;;0.80;;
13406;SDS011;6774;48.208;10.766;2022-09-03T09:09:59;1.00;;;1.00;;
13406;SDS011;6774;48.208;10.766;2022-09-03T09:12:38;0.80;;;0.80;;
13406;SDS011;6774;48.208;10.766;2022-09-03T09:15:18;1.17;;;1.10;;
13406;SDS011;6774;48.208;10.766;2022-09-03T09:18:06;0.80;;;0.80;;
13406;SDS011;6774;48.208;10.766;2022-09-03T09:20:42;0.50;;;0.50;;
13406;SDS011;6774;48.208;10.766;2022-09-03T09:23:17;0.53;;;0.53;;
13406;SDS011;6774;48.208;10.766;2022-09-03T09:25:51;0.70;;;0.70;;
13406;SDS011;6774;48.208;10.766;2022-09-03T09:28:23;0.57;;;0.50;;
13406;SDS011;6774;48.208;10.766;2022-09-03T09:30:54;0.60;;;0.60;;
13406;SDS011;6774;48.208;10.766;2022-09-03T09:33:23;1.00;;;0.47;;
13406;SDS011;6774;48.208;10.766;2022-09-03T09:35:51;1.97;;;1.70;;
13406;SDS011;6774;48.208;10.766;2022-09-03T09:38:26;1.37;;;1.27;;
13406;SDS011;6774;48.208;10.766;2022-09-03T09:40:55;0.77;;;0.77;;
13406;SDS011;6774;48.208;10.766;2022-09-03T09:43:25;0.83;;;0.80;;
13406;SDS011;6774;48.208;10.766;2022-09-03T09:45:54;0.50;;;0.50;;
13406;SDS011;6774;48.208;10.766;2022-09-03T09:48:36;0.70;;;0.70;;
13406;SDS011;6774;48.208;10.766;2022-09-03T09:51:08;0.73;;;0.73;;
13406;SDS011;6774;48.208;10.766;2022-09-03T09:53:38;0.57;;;0.57;;
13406;SDS011;6774;48.208;10.766;2022-09-03T09:56:07;0.73;;;0.70;;
13406;SDS011;6774;48.208;10.766;2022-09-03T09:58:35;0.47;;;0.47;;
13406;SDS011;6774;48.208;10.766;2022-09-03T10:01:08;0.60;;;0.60;;
13406;SDS011;6774;48.208;10.766;2022-09-03T10:03:39;0.40;;;0.40;;
13406;SDS011;6774;48.208;10.766;2022-09-03T10:06:15;0.40;;;0.40;;
13406;SDS011;6774;48.208;10.766;2022-09-03T10:09:07;1.00;;;0.60;;
13406;SDS011;6774;48.208;10.766;2022-09-03T10:11:37;0.57;;;0.50;;
13406;SDS011;6774;48.208;10.766;2022-09-03T10:14:09;0.50;;;0.50;;
13406;SDS011;6774;48.208;10.766;2022-09-03T10:16:46;0.50;;;0.50;;
13406;SDS011;6774;48.208;10.766;2022-09-03T10:19:17;0.53;;;0.53;;
13406;SDS011;6774;48.208;10.766;2022-09-03T10:21:48;0.83;;;0.83;;
13406;SDS011;6774;48.208;10.766;2022-09-03T10:24:27;0.90;;;0.90;;
13406;SDS011;6774;48.208;10.766;2022-09-03T10:27:08;0.50;;;0.50;;
13406;SDS011;6774;48.208;10.766;2022-09-03T10:29:38;0.67;;;0.67;;
13406;SDS011;6774;48.208;10.766;2022-09-03T10:32:12;1.10;;;0.77;;
13406;SDS011;6774;48.208;10.766;2022-09-03T10:34:51;0.63;;;0.63;;
13406;SDS011;6774;48.208;10.766;2022-09-03T10:37:32;0.43;;;0.43;;
13406;SDS011;6774;48.208;10.766;2022-09-03T10:40:08;0.57;;;0.50;;
13406;SDS011;6774;48.208;10.766;2022-09-03T10:42:43;1.23;;;0.43;;
13406;SDS011;6774;48.208;10.766;2022-09-03T10:45:21;0.80;;;0.80;;
13406;SDS011;6774;48.208;10.766;2022-09-03T10:51:04;0.50;;;0.50;;
13406;SDS011;6774;48.208;10.766;2022-09-03T10:53:38;0.50;;;0.50;;
13406;SDS011;6774;48.208;10.766;2022-09-03T10:56:20;0.43;;;0.43;;
13406;SDS011;6774;48.208;10.766;2022-09-03T10:58:54;0.60;;;0.60;;
13406;SDS011;6774;48.208;10.766;2022-09-03T11:01:32;0.65;;;0.52;;
13406;SDS011;6774;48.208;10.766;2022-09-03T11:04:16;0.70;;;0.70;;
13406;SDS011;6774;48.208;10.766;2022-09-03T11:06:49;1.08;;;0.95;;
13406;SDS011;6774;48.208;10.766;2022-09-03T11:09:21;0.70;;;0.50;;
13406;SDS011;6774;48.208;10.766;2022-09-03T11:11:54;0.55;;;0.55;;
13406;SDS011;6774;48.208;10.766;2022-09-03T11:14:29;0.50;;;0.50;;
13406;SDS011;6774;48.208;10.766;2022-09-03T11:17:02;0.50;;;0.50;;
13406;SDS011;6774;48.208;10.766;2022-09-03T11:19:39;1.00;;;0.90;;
13406;SDS011;6774;48.208;10.766;2022-09-03T11:22:13;0.52;;;0.52;;
13406;SDS011;6774;48.208;10.766;2022-09-03T11:24:48;0.55;;;0.55;;
13406;SDS011;6774;48.208;10.766;2022-09-03T11:27:24;1.30;;;1.10;;
13406;SDS011;6774;48.208;10.766;2022-09-03T11:29:58;2.05;;;0.60;;
13406;SDS011;6774;48.208;10.766;2022-09-03T11:32:40;0.88;;;0.82;;
13406;SDS011;6774;48.208;10.766;2022-09-03T11:35:25;1.52;;;0.60;;
13406;SDS011;6774;48.208;10.766;2022-09-03T11:37:57;0.65;;;0.65;;
13406;SDS011;6774;48.208;10.766;2022-09-03T11:40:31;0.45;;;0.45;;
13406;SDS011;6774;48.208;10.766;2022-09-03T11:43:04;0.50;;;0.50;;
13406;SDS011;6774;48.208;10.766;2022-09-03T11:45:35;0.50;;;0.50;;
13406;SDS011;6774;48.208;10.766;2022-09-03T11:48:17;0.80;;;0.80;;
13406;SDS011;6774;48.208;10.766;2022-09-03T11:50:56;0.57;;;0.57;;
13406;SDS011;6774;48.208;10.766;2022-09-03T11:53:24;0.40;;;0.40;;
13406;SDS011;6774;48.208;10.766;2022-09-03T11:56:00;0.47;;;0.43;;
13406;SDS011;6774;48.208;10.766;2022-09-03T11:58:44;0.52;;;0.52;;
13406;SDS011;6774;48.208;10.766;2022-09-03T12:01:13;0.70;;;0.70;;
13406;SDS011;6774;48.208;10.766;2022-09-03T12:03:44;0.30;;;0.30;;
13406;SDS011;6774;48.208;10.766;2022-09-03T12:06:26;0.45;;;0.45;;
13406;SDS011;6774;48.208;10.766;2022-09-03T12:09:18;0.93;;;0.47;;
13406;SDS011;6774;48.208;10.766;2022-09-03T12:12:03;0.40;;;0.40;;
13406;SDS011;6774;48.208;10.766;2022-09-03T12:14:44;0.80;;;0.80;;
13406;SDS011;6774;48.208;10.766;2022-09-03T12:17:21;0.50;;;0.50;;
13406;SDS011;6774;48.208;10.766;2022-09-03T12:19:55;0.55;;;0.55;;
13406;SDS011;6774;48.208;10.766;2022-09-03T12:22:26;1.00;;;1.00;;
13406;SDS011;6774;48.208;10.766;2022-09-03T12:25:05;1.65;;;1.55;;
13406;SDS011;6774;48.208;10.766;2022-09-03T12:27:37;0.70;;;0.70;;
13406;SDS011;6774;48.208;10.766;2022-09-03T12:30:12;0.70;;;0.70;;
13406;SDS011;6774;48.208;10.766;2022-09-03T12:32:43;0.40;;;0.40;;
13406;SDS011;6774;48.208;10.766;2022-09-03T12:35:14;1.05;;;1.00;;
13406;SDS011;6774;48.208;10.766;2022-09-03T12:38:05;0.30;;;0.30;;
13406;SDS011;6774;48.208;10.766;2022-09-03T12:40:40;0.40;;;0.40;;
13406;SDS011;6774;48.208;10.766;2022-09-03T12:43:29;0.30;;;0.30;;
13406;SDS011;6774;48.208;10.766;2022-09-03T12:46:12;0.55;;;0.55;;
13406;SDS011;6774;48.208;10.766;2022-09-03T12:48:45;0.40;;;0.40;;
13406;SDS011;6774;48.208;10.766;2022-09-03T12:51:39;0.40;;;0.40;;
13406;SDS011;6774;48.208;10.766;2022-09-03T12:54:20;1.17;;;0.60;;
13406;SDS011;6774;48.208;10.766;2022-09-03T12:56:50;0.60;;;0.60;;
13406;SDS011;6774;48.208;10.766;2022-09-03T12:59:22;0.40;;;0.40;;
13406;SDS011;6774;48.208;10.766;2022-09-03T13:01:54;0.50;;;0.50;;
13406;SDS011;6774;48.208;10.766;2022-09-03T13:04:29;2.23;;;1.03;;
13406;SDS011;6774;48.208;10.766;2022-09-03T13:07:00;1.97;;;0.80;;
13406;SDS011;6774;48.208;10.766;2022-09-03T13:09:32;0.50;;;0.30;;
13406;SDS011;6774;48.208;10.766;2022-09-03T13:12:02;2.07;;;0.30;;
13406;SDS011;6774;48.208;10.766;2022-09-03T13:14:40;0.33;;;0.33;;
13406;SDS011;6774;48.208;10.766;2022-09-03T13:17:13;2.03;;;0.50;;
13406;SDS011;6774;48.208;10.766;2022-09-03T13:19:58;2.80;;;0.57;;
13406;SDS011;6774;48.208;10.766;2022-09-03T13:22:44;2.33;;;0.87;;
13406;SDS011;6774;48.208;10.766;2022-09-03T13:25:28;1.60;;;0.27;;
13406;SDS011;6774;48.208;10.766;2022-09-03T13:28:02;2.47;;;1.57;;
13406;SDS011;6774;48.208;10.766;2022-09-03T13:30:42;2.83;;;0.30;;
13406;SDS011;6774;48.208;10.766;2022-09-03T13:33:20;0.47;;;0.43;;
13406;SDS011;6774;48.208;10.766;2022-09-03T13:35:58;2.23;;;0.30;;
13406;SDS011;6774;48.208;10.766;2022-09-03T13:38:30;2.13;;;0.30;;
13406;SDS011;6774;48.208;10.766;2022-09-03T13:41:06;0.20;;;0.20;;
13406;SDS011;6774;48.208;10.766;2022-09-03T13:43:46;0.30;;;0.30;;
13406;SDS011;6774;48.208;10.766;2022-09-03T13:46:20;0.40;;;0.40;;
13406;SDS011;6774;48.208;10.766;2022-09-03T13:48:50;1.03;;;0.70;;
13406;SDS011;6774;48.208;10.766;2022-09-03T13:51:46;2.27;;;0.40;;
13406;SDS011;6774;48.208;10.766;2022-09-03T13:54:21;0.40;;;0.27;;
13406;SDS011;6774;48.208;10.766;2022-09-03T13:57:20;1.07;;;0.40;;
13406;SDS011;6774;48.208;10.766;2022-09-03T13:59:59;0.53;;;0.53;;
13406;SDS011;6774;48.208;10.766;2022-09-03T14:02:35;0.73;;;0.50;;
13406;SDS011;6774;48.208;10.766;2022-09-03T14:05:14;1.20;;;0.90;;
13406;SDS011;6774;48.208;10.766;2022-09-03T14:07:56;2.63;;;0.50;;
13406;SDS011;6774;48.208;10.766;2022-09-03T14:10:38;6.53;;;1.57;;
13406;SDS011;6774;48.208;10.766;2022-09-03T14:13:23;0.70;;;0.40;;
13406;SDS011;6774;48.208;10.766;2022-09-03T14:15:59;0.40;;;0.40;;
13406;SDS011;6774;48.208;10.766;2022-09-03T14:18:41;0.70;;;0.40;;
13406;SDS011;6774;48.208;10.766;2022-09-03T14:21:16;0.50;;;0.40;;
13406;SDS011;6774;48.208;10.766;2022-09-03T14:23:50;0.87;;;0.80;;
13406;SDS011;6774;48.208;10.766;2022-09-03T14:26:28;1.60;;;0.50;;
13406;SDS011;6774;48.208;10.766;2022-09-03T14:29:12;0.40;;;0.40;;
13406;SDS011;6774;48.208;10.766;2022-09-03T14:31:49;0.60;;;0.60;;
13406;SDS011;6774;48.208;10.766;2022-09-03T14:34:33;0.50;;;0.40;;
13406;SDS011;6774;48.208;10.766;2022-09-03T14:37:13;0.70;;;0.70;;
13406;SDS011;6774;48.208;10.766;2022-09-03T14:39:57;0.90;;;0.60;;
13406;SDS011;6774;48.208;10.766;2022-09-03T14:42:36;0.57;;;0.50;;
13406;SDS011;6774;48.208;10.766;2022-09-03T14:45:16;0.50;;;0.50;;
13406;SDS011;6774;48.208;10.766;2022-09-03T14:47:54;0.60;;;0.60;;
13406;SDS011;6774;48.208;10.766;2022-09-03T14:50:39;2.13;;;0.43;;
13406;SDS011;6774;48.208;10.766;2022-09-03T14:53:17;1.27;;;0.77;;
13406;SDS011;6774;48.208;10.766;2022-09-03T14:55:56;3.20;;;1.13;;
13406;SDS011;6774;48.208;10.766;2022-09-03T14:58:34;1.03;;;0.40;;
13406;SDS011;6774;48.208;10.766;2022-09-03T15:01:16;1.20;;;0.97;;
13406;SDS011;6774;48.208;10.766;2022-09-03T15:03:54;0.60;;;0.43;;
13406;SDS011;6774;48.208;10.766;2022-09-03T15:06:38;0.50;;;0.50;;
13406;SDS011;6774;48.208;10.766;2022-09-03T15:09:18;0.40;;;0.40;;
13406;SDS011;6774;48.208;10.766;2022-09-03T15:11:54;1.10;;;0.43;;
13406;SDS011;6774;48.208;10.766;2022-09-03T15:14:26;0.63;;;0.60;;
13406;SDS011;6774;48.208;10.766;2022-09-03T15:17:05;1.23;;;0.50;;
13406;SDS011;6774;48.208;10.766;2022-09-03T15:19:50;0.70;;;0.70;;
13406;SDS011;6774;48.208;10.766;2022-09-03T15:22:33;0.43;;;0.43;;
13406;SDS011;6774;48.208;10.766;2022-09-03T15:25:17;0.30;;;0.30;;
13406;SDS011;6774;48.208;10.766;2022-09-03T15:27:58;3.90;;;0.73;;
13406;SDS011;6774;48.208;10.766;2022-09-03T15:30:34;0.47;;;0.40;;